Time;durP1;ratioP1;P1;durP2;ratioP2;P2;SDS_P1;SDS_P2;PMS_P1;PMS_P2;Temp;Humidity;BMP_temperature;BMP_pressure;BME280_temperature;BME280_humidity;BME280_pressure;Samples;Min_cycle;Max_cycle;Signal;HPM_P1;HPM_P2
2022/11/23 00:01:30;;;;;;;26.57;13.20;;;;;;;-145.18;100.00;46689.69;5033091;28;20263;-80
2022/11/23 00:03:57;;;;;;;33.80;14.80;;;;;;;-145.18;100.00;46685.78;5033118;28;20612;-80
2022/11/23 00:06:24;;;;;;;28.10;13.17;;;;;;;-145.18;100.00;46683.84;5033180;28;20763;-80
2022/11/23 00:08:51;;;;;;;29.53;13.03;;;;;;;-145.18;100.00;46681.88;5033705;28;20275;-80
2022/11/23 00:11:17;;;;;;;27.07;11.97;;;;;;;-145.18;100.00;46683.84;5033249;28;20452;-80
2022/11/23 00:13:44;;;;;;;27.63;13.43;;;;;;;-145.18;100.00;46685.78;5033208;28;20270;-80
2022/11/23 00:16:14;;;;;;;26.67;12.50;;;;;;;-145.18;100.00;46687.75;5033164;28;20269;-80
2022/11/23 00:18:40;;;;;;;32.70;12.53;;;;;;;-145.18;100.00;46685.78;5033258;28;20266;-80
2022/11/23 00:21:11;;;;;;;24.87;13.10;;;;;;;-145.18;100.00;46679.94;5032877;28;20278;-80
2022/11/23 00:23:37;;;;;;;32.00;13.43;;;;;;;-145.18;100.00;46681.88;5033110;28;20044;-80
2022/11/23 00:26:04;;;;;;;32.53;13.13;;;;;;;-145.18;100.00;46685.78;5033065;28;20276;-80
2022/11/23 00:28:29;;;;;;;31.90;12.40;;;;;;;-145.18;100.00;46691.66;5015075;28;20647;-80
2022/11/23 00:30:55;;;;;;;36.27;12.70;;;;;;;-145.18;100.00;46683.84;5032647;28;20314;-80
2022/11/23 00:33:20;;;;;;;25.33;11.57;;;;;;;-145.18;100.00;46681.88;5032763;28;20441;-80
2022/11/23 00:35:46;;;;;;;23.50;11.93;;;;;;;-145.18;100.00;46693.59;5032864;28;20035;-80
2022/11/23 00:38:11;;;;;;;25.77;13.57;;;;;;;-145.18;100.00;46689.69;5032784;28;20080;-80
2022/11/23 00:40:37;;;;;;;32.10;11.40;;;;;;;-145.18;100.00;46701.41;5032740;28;20091;-80
2022/11/23 00:43:02;;;;;;;35.63;12.13;;;;;;;-145.18;100.00;46683.84;5014740;28;20063;-79
2022/11/23 00:45:28;;;;;;;28.33;11.53;;;;;;;-145.18;100.00;46691.66;5014856;28;20036;-79
2022/11/23 00:47:53;;;;;;;27.27;10.83;;;;;;;-145.18;100.00;46683.84;5032548;28;20504;-79
2022/11/23 00:50:18;;;;;;;25.20;12.27;;;;;;;-145.18;100.00;46685.78;5032262;28;20083;-79
2022/11/23 00:52:44;;;;;;;25.93;11.67;;;;;;;-145.18;100.00;46689.69;5031981;28;20044;-79
2022/11/23 00:55:09;;;;;;;23.30;11.87;;;;;;;-145.18;100.00;46681.88;5032247;28;20044;-80
2022/11/23 00:57:34;;;;;;;27.47;11.63;;;;;;;-145.18;100.00;46681.88;5031988;28;20047;-79
2022/11/23 01:00:00;;;;;;;24.07;11.47;;;;;;;-145.18;100.00;46687.75;5032762;28;20048;-79
2022/11/23 01:02:26;;;;;;;31.87;11.93;;;;;;;-145.18;100.00;46689.69;5031922;28;20029;-79
2022/11/23 01:04:51;;;;;;;30.57;12.53;;;;;;;-145.18;100.00;46683.84;5031896;28;20037;-79
2022/11/23 01:07:17;;;;;;;31.40;12.57;;;;;;;-145.18;100.00;46689.69;5013978;28;20107;-79
2022/11/23 01:09:42;;;;;;;27.77;12.60;;;;;;;-145.18;100.00;46693.59;5014498;28;20042;-79
2022/11/23 01:12:07;;;;;;;25.13;11.50;;;;;;;-145.18;100.00;46695.56;5014372;28;20040;-79
2022/11/23 01:14:33;;;;;;;29.70;13.03;;;;;;;-145.18;100.00;46699.47;5031296;28;20092;-79
2022/11/23 01:16:58;;;;;;;26.30;11.53;;;;;;;-145.18;100.00;46697.50;5031695;28;20113;-79
2022/11/23 01:19:24;;;;;;;24.37;12.17;;;;;;;-145.18;100.00;46693.59;5032311;28;20478;-79
2022/11/23 01:21:50;;;;;;;36.33;11.50;;;;;;;-145.18;100.00;46699.47;5031721;28;20461;-79
2022/11/23 01:24:18;;;;;;;23.97;11.97;;;;;;;-145.18;100.00;46689.69;5031524;28;20057;-79
2022/11/23 01:26:44;;;;;;;31.07;11.27;;;;;;;-145.18;100.00;46699.47;5031769;28;20100;-80
2022/11/23 01:29:10;;;;;;;28.57;11.30;;;;;;;-145.18;100.00;46697.50;5031965;28;20355;-80
2022/11/23 01:31:36;;;;;;;23.53;10.33;;;;;;;-145.18;100.00;46691.66;5013490;28;20095;-79
2022/11/23 01:34:03;;;;;;;24.47;10.27;;;;;;;-145.18;100.00;46697.50;5031627;28;20279;-80
2022/11/23 01:36:31;;;;;;;30.63;10.53;;;;;;;-145.18;100.00;46689.69;5031521;28;20052;-80
2022/11/23 01:38:58;;;;;;;32.67;9.90;;;;;;;-145.18;100.00;46689.69;5031888;28;20275;-79
2022/11/23 01:41:29;;;;;;;26.27;10.30;;;;;;;-145.18;100.00;46687.75;5031206;28;20618;-79
2022/11/23 01:43:55;;;;;;;28.00;10.40;;;;;;;-145.18;100.00;46695.56;5031862;28;20269;-79
2022/11/23 01:46:21;;;;;;;22.57;9.13;;;;;;;-145.18;100.00;46693.59;5031326;28;20266;-79
2022/11/23 01:49:03;;;;;;;19.20;8.23;;;;;;;-145.18;100.00;46695.56;5031524;28;20033;-79
2022/11/23 01:51:38;;;;;;;24.53;9.17;;;;;;;-145.18;100.00;46697.50;5031168;28;20049;-79
2022/11/23 01:54:29;;;;;;;28.92;9.48;;;;;;;-145.18;100.00;46695.56;5031494;28;20267;-79
2022/11/23 01:57:00;;;;;;;20.37;8.70;;;;;;;-145.18;100.00;46701.41;5031383;28;20033;-79
2022/11/23 01:59:29;;;;;;;29.90;9.17;;;;;;;-145.18;100.00;46689.69;5031108;28;20263;-79
2022/11/23 02:01:54;;;;;;;23.50;9.30;;;;;;;-145.18;100.00;46687.75;5013343;28;20631;-79
2022/11/23 02:04:26;;;;;;;22.07;9.33;;;;;;;-145.18;100.00;46699.47;5030230;28;20263;-79
2022/11/23 02:06:52;;;;;;;20.47;9.30;;;;;;;-145.18;100.00;46693.59;5030787;28;20045;-79
2022/11/23 02:09:18;;;;;;;22.43;10.47;;;;;;;-145.18;100.00;46693.59;5030902;28;20271;-79
2022/11/23 02:11:44;;;;;;;20.00;9.97;;;;;;;-145.18;100.00;46691.66;5030883;28;20330;-79
2022/11/23 02:14:09;;;;;;;24.70;12.13;;;;;;;-145.18;100.00;46693.59;5031222;28;20309;-79
2022/11/23 02:16:37;;;;;;;23.57;12.17;;;;;;;-145.18;100.00;46693.59;5030820;28;20038;-79
2022/11/23 02:19:06;;;;;;;25.23;11.60;;;;;;;-145.18;100.00;46695.56;5030837;28;20030;-79
2022/11/23 02:21:31;;;;;;;28.87;13.17;;;;;;;-145.18;100.00;46685.78;5030428;28;20274;-79
2022/11/23 02:24:09;;;;;;;23.50;11.97;;;;;;;-145.18;100.00;46699.47;5030991;28;20273;-80
2022/11/23 02:26:35;;;;;;;31.13;13.57;;;;;;;-145.18;100.00;46697.50;5030819;28;20033;-79
2022/11/23 02:29:22;;;;;;;26.33;12.77;;;;;;;-145.18;100.00;46691.66;5030815;28;20311;-79
2022/11/23 02:31:47;;;;;;;;;;;;;;;-145.18;100.00;46697.50;5031115;28;20298;-80
2022/11/23 02:34:12;;;;;;;23.77;12.60;;;;;;;-145.18;100.00;46693.59;5031416;28;19920;-79
2022/11/23 02:36:45;;;;;;;28.67;13.27;;;;;;;-145.18;100.00;46685.78;5030602;28;20033;-79
2022/11/23 02:39:21;;;;;;;24.93;12.93;;;;;;;-145.18;100.00;46697.50;5030839;28;20676;-80
2022/11/23 02:41:52;;;;;;;22.77;12.98;;;;;;;-145.18;100.00;46695.56;5030721;28;20639;-79
2022/11/23 02:44:41;;;;;;;27.10;13.27;;;;;;;-145.18;100.00;46697.50;5030657;28;20044;-79
2022/11/23 02:47:07;;;;;;;25.73;12.63;;;;;;;-145.18;100.00;46689.69;5030672;28;20259;-79
2022/11/23 02:49:33;;;;;;;31.77;13.93;;;;;;;-145.18;100.00;46691.66;5030623;28;20311;-79
2022/11/23 02:51:59;;;;;;;27.20;14.33;;;;;;;-145.18;100.00;46693.59;5030377;28;20294;-79
2022/11/23 02:54:25;;;;;;;27.47;13.83;;;;;;;-145.18;100.00;46709.22;5030624;28;20053;-79
2022/11/23 02:56:50;;;;;;;26.63;13.40;;;;;;;-145.18;100.00;46693.59;5030388;28;20044;-79
2022/11/23 02:59:15;;;;;;;25.20;12.57;;;;;;;-145.18;100.00;46693.59;5013202;28;20104;-80
2022/11/23 03:01:41;;;;;;;22.03;13.07;;;;;;;-145.18;100.00;46705.31;5366802;22;20030;-93
2022/11/23 03:04:07;;;;;;;26.07;12.47;;;;;;;-145.18;100.00;46693.59;4998883;23;20050;-78
2022/11/23 03:06:32;;;;;;;24.73;12.47;;;;;;;-145.18;100.00;46697.50;5010629;28;20088;-78
2022/11/23 03:08:58;;;;;;;20.07;11.60;;;;;;;-145.18;100.00;46695.56;5008247;28;20271;-79
2022/11/23 03:11:23;;;;;;;27.27;12.47;;;;;;;-145.18;100.00;46695.56;4994276;28;20113;-78
2022/11/23 03:13:49;;;;;;;20.60;11.17;;;;;;;-145.18;100.00;46689.69;5010410;28;20093;-78
2022/11/23 03:16:15;;;;;;;22.57;11.50;;;;;;;-145.18;100.00;46703.38;5008681;28;20057;-78
2022/11/23 03:18:41;;;;;;;18.90;10.47;;;;;;;-145.18;100.00;46705.31;4994997;28;20442;-78
2022/11/23 03:21:10;;;;;;;21.50;10.00;;;;;;;-145.18;100.00;46697.50;5000398;28;20263;-78
2022/11/23 03:23:36;;;;;;;21.37;8.97;;;;;;;-145.18;100.00;46695.56;5014104;28;20371;-78
2022/11/23 03:26:01;;;;;;;16.87;9.20;;;;;;;-145.18;100.00;46697.50;5011663;28;20278;-78
2022/11/23 03:28:27;;;;;;;18.23;8.77;;;;;;;-145.18;100.00;46699.47;4976936;28;20038;-78
2022/11/23 03:30:53;;;;;;;17.37;8.90;;;;;;;-145.18;100.00;46703.38;5003567;28;20116;-78
2022/11/23 03:33:19;;;;;;;20.37;8.40;;;;;;;-145.18;100.00;46693.59;5028126;28;20022;-78
2022/11/23 03:35:44;;;;;;;27.20;10.03;;;;;;;-145.18;100.00;46707.28;5014264;28;20109;-78
2022/11/23 03:38:10;;;;;;;17.73;9.23;;;;;;;-145.18;100.00;46697.50;5014138;28;20709;-78
2022/11/23 03:40:35;;;;;;;21.23;9.33;;;;;;;-145.18;100.00;46695.56;4996849;28;20092;-78
2022/11/23 03:43:01;;;;;;;18.77;9.13;;;;;;;-145.18;100.00;46701.41;5010970;28;20130;-78
2022/11/23 03:45:26;;;;;;;19.27;8.67;;;;;;;-145.18;100.00;46697.50;4996918;28;20039;-78
2022/11/23 03:47:52;;;;;;;20.80;8.97;;;;;;;-145.18;100.00;46701.41;4994515;28;20042;-78
2022/11/23 03:50:17;;;;;;;20.97;8.30;;;;;;;-145.18;100.00;46699.47;4993081;28;20049;-78
2022/11/23 03:52:42;;;;;;;23.73;9.17;;;;;;;-145.18;100.00;46701.41;5001943;28;20120;-78
2022/11/23 03:55:08;;;;;;;23.03;8.53;;;;;;;-145.18;100.00;46699.47;5013681;28;20456;-77
2022/11/23 03:57:34;;;;;;;21.43;9.13;;;;;;;-145.18;100.00;46713.13;5013954;28;20041;-77
2022/11/23 03:59:59;;;;;;;17.90;8.37;;;;;;;-145.18;100.00;46697.50;4996134;28;20042;-77
2022/11/23 04:02:24;;;;;;;19.90;9.03;;;;;;;-145.18;100.00;46699.47;5013457;28;20410;-77
2022/11/23 04:04:50;;;;;;;21.93;8.70;;;;;;;-145.18;100.00;46701.41;5014209;28;20092;-78
2022/11/23 04:07:15;;;;;;;22.40;8.67;;;;;;;-145.18;100.00;46705.31;5013390;28;20026;-77
2022/11/23 04:09:41;;;;;;;20.77;8.20;;;;;;;-145.18;100.00;46701.41;5013653;28;20078;-78
2022/11/23 04:12:08;;;;;;;17.73;7.70;;;;;;;-145.18;100.00;46701.41;5013196;28;20029;-78
2022/11/23 04:14:34;;;;;;;19.63;8.20;;;;;;;-145.18;100.00;46705.31;5013732;28;20033;-78
2022/11/23 04:17:01;;;;;;;20.20;7.50;;;;;;;-145.18;100.00;46693.59;5013430;28;20271;-78
2022/11/23 04:19:26;;;;;;;27.37;7.37;;;;;;;-145.18;100.00;46699.47;5011118;28;20065;-78
2022/11/23 04:21:51;;;;;;;15.70;6.77;;;;;;;-145.18;100.00;46697.50;4993384;28;20287;-78
2022/11/23 04:24:17;;;;;;;17.40;5.97;;;;;;;-145.18;100.00;46699.47;4993498;28;20031;-78
2022/11/23 04:26:42;;;;;;;13.77;5.33;;;;;;;-145.18;100.00;46699.47;4992697;28;20045;-78
2022/11/23 04:29:07;;;;;;;22.47;5.27;;;;;;;-145.18;100.00;46697.50;4993602;28;20121;-78
2022/11/23 04:31:33;;;;;;;17.80;5.63;;;;;;;-145.18;100.00;46711.19;4993872;28;20043;-78
2022/11/23 04:33:58;;;;;;;13.33;4.77;;;;;;;-145.18;100.00;46713.13;4991868;28;20403;-78
2022/11/23 04:36:24;;;;;;;24.30;5.00;;;;;;;-145.18;100.00;46693.59;4993901;28;20472;-78
2022/11/23 04:38:49;;;;;;;15.97;4.73;;;;;;;-145.18;100.00;46701.41;4993512;28;20113;-78
2022/11/23 04:41:15;;;;;;;12.50;4.57;;;;;;;-145.18;100.00;46701.41;4993446;28;20487;-79
2022/11/23 04:43:40;;;;;;;18.13;5.03;;;;;;;-145.18;100.00;46709.22;4993492;28;20487;-78
2022/11/23 04:46:06;;;;;;;15.40;4.47;;;;;;;-145.18;100.00;46713.13;4993573;28;20121;-78
2022/11/23 04:48:31;;;;;;;16.30;4.77;;;;;;;-145.18;100.00;46703.38;4993301;28;20426;-78
2022/11/23 04:50:57;;;;;;;21.43;5.03;;;;;;;-145.18;100.00;46711.19;4993463;28;20041;-78
2022/11/23 04:53:22;;;;;;;22.77;6.23;;;;;;;-145.18;100.00;46707.28;4993380;28;20054;-78
2022/11/23 04:55:48;;;;;;;20.97;7.20;;;;;;;-145.18;100.00;46703.38;4994563;28;20640;-78
2022/11/23 04:58:13;;;;;;;17.63;6.50;;;;;;;-145.18;100.00;46703.38;5012374;28;20084;-78
2022/11/23 05:00:39;;;;;;;18.03;7.27;;;;;;;-145.18;100.00;46703.38;5012818;28;20038;-78
2022/11/23 05:03:04;;;;;;;22.20;7.77;;;;;;;-145.18;100.00;46717.03;5012208;28;20108;-78
2022/11/23 05:05:30;;;;;;;22.07;7.43;;;;;;;-145.18;100.00;46703.38;5012759;28;20030;-78
2022/11/23 05:07:56;;;;;;;26.40;8.27;;;;;;;-145.18;100.00;46717.03;5012449;28;20112;-78
2022/11/23 05:10:21;;;;;;;21.87;8.73;;;;;;;-145.18;100.00;46715.09;5012501;28;20473;-79
2022/11/23 05:12:47;;;;;;;25.50;7.83;;;;;;;-145.18;100.00;46717.03;5012369;28;20350;-79
2022/11/23 05:15:13;;;;;;;21.90;7.83;;;;;;;-145.18;100.00;46715.09;5012570;28;20476;-78
2022/11/23 05:17:38;;;;;;;21.23;8.30;;;;;;;-145.18;100.00;46709.22;5012411;28;20480;-79
2022/11/23 05:20:04;;;;;;;18.87;8.20;;;;;;;-145.18;100.00;46720.94;5012088;28;20306;-78
2022/11/23 05:22:30;;;;;;;29.87;8.13;;;;;;;-145.18;100.00;46717.03;5011988;28;20444;-79
2022/11/23 05:24:55;;;;;;;23.30;7.70;;;;;;;-145.18;100.00;46711.19;5012313;28;20038;-79
2022/11/23 05:27:20;;;;;;;21.13;6.80;;;;;;;-145.18;100.00;46713.13;4994865;28;20401;-79
2022/11/23 05:29:46;;;;;;;15.80;7.17;;;;;;;-145.18;100.00;46720.94;5012545;28;20193;-80
2022/11/23 05:32:11;;;;;;;18.13;6.53;;;;;;;-145.18;100.00;46709.22;5011576;28;20069;-80
2022/11/23 05:34:36;;;;;;;17.30;6.13;;;;;;;-145.18;100.00;46720.94;5011634;28;20057;-80
2022/11/23 05:37:02;;;;;;;19.63;6.33;;;;;;;-145.18;100.00;46719.00;5011658;28;20038;-80
2022/11/23 05:39:27;;;;;;;14.20;4.33;;;;;;;-145.18;100.00;46717.03;5011022;28;20046;-80
2022/11/23 05:41:52;;;;;;;17.07;4.27;;;;;;;-145.18;100.00;46717.03;5014643;28;20036;-80
2022/11/23 05:44:18;;;;;;;15.00;4.10;;;;;;;-145.18;100.00;46719.00;5028344;28;20112;-79
2022/11/23 05:46:43;;;;;;;11.77;3.23;;;;;;;-145.18;100.00;46719.00;5031652;28;20060;-80
2022/11/23 05:49:08;;;;;;;18.10;3.10;;;;;;;-145.18;100.00;46719.00;5031287;28;20462;-80
2022/11/23 05:51:34;;;;;;;8.37;2.30;;;;;;;-145.18;100.00;46719.00;5031185;28;20410;-80
2022/11/23 05:54:00;;;;;;;17.53;2.43;;;;;;;-145.18;100.00;46724.84;5028565;28;20034;-80
2022/11/23 05:56:25;;;;;;;20.00;3.03;;;;;;;-145.18;100.00;46717.03;5009687;28;20181;-80
2022/11/23 05:58:53;;;;;;;13.17;2.23;;;;;;;-145.18;100.00;46720.94;5009881;28;20775;-79
2022/11/23 06:01:18;;;;;;;23.40;3.13;;;;;;;-145.18;100.00;46720.94;4993884;28;20376;-80
2022/11/23 06:03:44;;;;;;;22.57;4.20;;;;;;;-145.18;100.00;46720.94;5010757;28;20335;-79
2022/11/23 06:06:10;;;;;;;19.70;2.40;;;;;;;-145.18;100.00;46719.00;5002755;28;20128;-80
2022/11/23 06:08:35;;;;;;;25.23;3.70;;;;;;;-145.18;100.00;46720.94;5011070;28;20026;-80
2022/11/23 06:11:01;;;;;;;15.73;2.23;;;;;;;-145.18;100.00;46726.81;5011246;28;20096;-79
2022/11/23 06:13:26;;;;;;;14.10;2.03;;;;;;;-145.18;100.00;46722.91;5010869;28;20037;-79
2022/11/23 06:15:52;;;;;;;19.60;2.40;;;;;;;-145.18;100.00;46719.00;5011010;28;20046;-80
2022/11/23 06:18:17;;;;;;;18.07;2.23;;;;;;;-145.18;100.00;46724.84;5003758;28;20056;-80
2022/11/23 06:20:42;;;;;;;21.23;3.07;;;;;;;-145.18;100.00;46720.94;4991656;28;20070;-79
2022/11/23 06:23:08;;;;;;;20.83;3.77;;;;;;;-145.18;100.00;46722.91;4996274;28;20069;-79
2022/11/23 06:25:33;;;;;;;23.20;3.57;;;;;;;-145.18;100.00;46722.91;5017367;28;20449;-80
2022/11/23 06:27:59;;;;;;;25.13;4.00;;;;;;;-145.18;100.00;46728.75;5016576;28;20034;-79
2022/11/23 06:30:27;;;;;;;18.13;2.20;;;;;;;-145.18;100.00;46722.91;5001248;28;20049;-80
2022/11/23 06:32:52;;;;;;;14.60;2.97;;;;;;;-145.18;100.00;46722.91;5018240;28;20268;-80
2022/11/23 06:35:18;;;;;;;16.27;2.97;;;;;;;-145.18;100.00;46720.94;5019052;28;20777;-80
2022/11/23 06:37:44;;;;;;;11.70;2.20;;;;;;;-145.18;100.00;46722.91;5017769;28;20387;-80
2022/11/23 06:40:11;;;;;;;20.90;2.90;;;;;;;-145.18;100.00;46724.84;5020013;28;20277;-80
2022/11/23 06:42:36;;;;;;;21.90;3.30;;;;;;;-145.18;100.00;46719.00;5016571;28;20034;-80
2022/11/23 06:45:02;;;;;;;16.10;2.87;;;;;;;-145.18;100.00;46724.84;5019774;28;20343;-80
2022/11/23 06:47:28;;;;;;;18.40;3.23;;;;;;;-145.18;100.00;46720.94;5019109;28;20029;-80
2022/11/23 06:49:53;;;;;;;17.70;3.13;;;;;;;-145.18;100.00;46722.91;4994537;28;20346;-79
2022/11/23 06:52:19;;;;;;;21.60;3.20;;;;;;;-145.18;100.00;46722.91;4995282;28;20085;-79
2022/11/23 06:54:45;;;;;;;16.83;2.20;;;;;;;-145.18;100.00;46722.91;5012202;28;20080;-79
2022/11/23 06:57:10;;;;;;;24.07;3.80;;;;;;;-145.18;100.00;46722.91;5014729;28;20108;-79
2022/11/23 06:59:36;;;;;;;21.50;3.40;;;;;;;-145.18;100.00;46720.94;5014725;28;20358;-79
2022/11/23 07:02:01;;;;;;;17.80;2.97;;;;;;;-145.18;100.00;46724.84;5014655;28;20048;-79
2022/11/23 07:04:26;;;;;;;21.27;3.20;;;;;;;-145.18;100.00;46720.94;5014124;28;20057;-79
2022/11/23 07:06:52;;;;;;;21.93;2.53;;;;;;;-145.18;100.00;46720.94;5014532;28;20100;-79
2022/11/23 07:09:17;;;;;;;23.23;3.37;;;;;;;-145.18;100.00;46722.91;5014136;28;20117;-79
2022/11/23 07:11:43;;;;;;;19.47;2.90;;;;;;;-145.18;100.00;46719.00;5014730;28;20054;-79
2022/11/23 07:14:08;;;;;;;22.07;3.20;;;;;;;-145.18;100.00;46717.03;5003026;28;20088;-79
2022/11/23 07:16:34;;;;;;;16.30;2.87;;;;;;;-145.18;100.00;46715.09;4994956;28;20038;-79
2022/11/23 07:18:59;;;;;;;23.73;3.70;;;;;;;-145.18;100.00;46717.03;5003855;28;20040;-79
2022/11/23 07:21:25;;;;;;;25.40;2.83;;;;;;;-145.18;100.00;46719.00;5014566;28;20129;-79
2022/11/23 07:23:50;;;;;;;21.83;3.03;;;;;;;-145.18;100.00;46717.03;5006244;28;20449;-79
2022/11/23 07:26:15;;;;;;;14.97;2.67;;;;;;;-145.18;100.00;46719.00;4994700;28;20049;-79
2022/11/23 07:28:41;;;;;;;21.20;3.47;;;;;;;-145.18;100.00;46715.09;4983645;28;20442;-79
2022/11/23 07:31:06;;;;;;;14.90;2.20;;;;;;;-145.18;100.00;46719.00;5014021;28;20058;-79
2022/11/23 07:33:32;;;;;;;22.83;3.20;;;;;;;-145.18;100.00;46719.00;4996353;28;20081;-80
2022/11/23 07:36:01;;;;;;;16.03;2.53;;;;;;;-145.18;100.00;46719.00;5014079;28;20041;-80
2022/11/23 07:38:26;;;;;;;15.03;3.63;;;;;;;-145.18;100.00;46719.00;5010278;28;20030;-80
2022/11/23 07:40:52;;;;;;;21.37;3.20;;;;;;;-145.18;100.00;46713.13;4994293;28;20338;-79
2022/11/23 07:43:17;;;;;;;26.93;2.97;;;;;;;-145.18;100.00;46715.09;4976723;28;20109;-79
2022/11/23 07:45:42;;;;;;;24.67;3.40;;;;;;;-145.18;100.00;46719.00;4977135;28;20043;-80
2022/11/23 07:48:08;;;;;;;24.57;3.17;;;;;;;-145.18;100.00;46711.19;4994576;28;20068;-79
2022/11/23 07:50:35;;;;;;;26.97;4.37;;;;;;;-145.18;100.00;46715.09;5013521;28;20065;-79
2022/11/23 07:53:02;;;;;;;21.53;2.90;;;;;;;-145.18;100.00;46711.19;5012287;28;20278;-79
2022/11/23 07:55:29;;;;;;;22.53;4.00;;;;;;;-145.18;100.00;46713.13;5013113;28;20362;-79
2022/11/23 07:57:55;;;;;;;23.90;3.83;;;;;;;-145.18;100.00;46717.03;5013353;28;20277;-79
2022/11/23 08:00:21;;;;;;;19.90;3.47;;;;;;;-145.18;100.00;46713.13;5013406;28;20276;-78
2022/11/23 08:02:47;;;;;;;17.10;2.57;;;;;;;-145.18;100.00;46709.22;4994462;28;20085;-79
2022/11/23 08:05:13;;;;;;;30.73;3.97;;;;;;;-145.18;100.00;46707.28;5001591;28;20315;-79
2022/11/23 08:07:38;;;;;;;15.97;2.43;;;;;;;-145.18;100.00;46705.31;4976370;28;20322;-78
2022/11/23 08:10:04;;;;;;;12.57;2.77;;;;;;;-145.18;100.00;46705.31;4999236;28;20490;-79
2022/11/23 08:12:30;;;;;;;24.07;3.03;;;;;;;-145.18;100.00;46707.28;5013202;28;20490;-79
2022/11/23 08:14:55;;;;;;;20.63;2.60;;;;;;;-145.18;100.00;46709.22;5006274;28;20423;-79
2022/11/23 08:17:20;;;;;;;18.80;3.33;;;;;;;-145.18;100.00;46707.28;5013014;28;20105;-79
2022/11/23 08:19:46;;;;;;;17.60;2.70;;;;;;;-145.18;100.00;46701.41;5012772;28;20034;-78
2022/11/23 08:22:11;;;;;;;22.87;2.90;;;;;;;-145.18;100.00;46707.28;4995587;28;20040;-79
2022/11/23 08:24:36;;;;;;;12.60;2.53;;;;;;;-145.18;100.00;46707.28;5006810;28;20126;-79
2022/11/23 08:27:02;;;;;;;16.37;3.30;;;;;;;-145.18;100.00;46709.22;4975775;28;20491;-79
2022/11/23 08:29:29;;;;;;;15.37;3.07;;;;;;;-145.18;100.00;46705.31;4997337;28;20624;-80
2022/11/23 08:31:54;;;;;;;19.43;2.70;;;;;;;-145.18;100.00;46705.31;5013115;28;20041;-79
2022/11/23 08:34:20;;;;;;;21.97;3.13;;;;;;;-145.18;100.00;46705.31;5012257;28;20628;-79
2022/11/23 08:36:46;;;;;;;18.70;2.60;;;;;;;-145.18;100.00;46705.31;5020401;28;20025;-80
2022/11/23 08:39:13;;;;;;;18.17;2.77;;;;;;;-145.18;100.00;46707.28;5012292;28;20536;-79
2022/11/23 08:41:39;;;;;;;16.80;2.80;;;;;;;-145.18;100.00;46707.28;5013035;28;20305;-79
2022/11/23 08:44:07;;;;;;;16.57;2.57;;;;;;;-145.18;100.00;46707.28;5011905;28;20302;-79
2022/11/23 08:46:32;;;;;;;14.70;2.80;;;;;;;-145.18;100.00;46711.19;5012900;28;20272;-79
2022/11/23 08:48:57;;;;;;;19.57;4.20;;;;;;;-145.18;100.00;46711.19;5012116;28;20413;-80
2022/11/23 08:51:23;;;;;;;14.90;3.20;;;;;;;-145.18;100.00;46711.19;5012716;28;20034;-79
2022/11/23 08:53:49;;;;;;;15.67;3.27;;;;;;;-145.18;100.00;46705.31;5011956;28;20054;-79
2022/11/23 08:56:14;;;;;;;13.40;2.63;;;;;;;-145.18;100.00;46707.28;4995130;28;20069;-79
2022/11/23 08:58:40;;;;;;;17.40;3.00;;;;;;;-145.18;100.00;46705.31;4992566;28;20308;-80
2022/11/23 09:01:10;;;;;;;19.43;3.30;;;;;;;-145.18;100.00;46705.31;4992896;28;20613;-80
2022/11/23 09:03:35;;;;;;;19.70;3.97;;;;;;;-145.18;100.00;46703.38;4992556;28;20046;-79
2022/11/23 09:06:01;;;;;;;29.87;2.90;;;;;;;-145.18;100.00;46703.38;5007859;28;20274;-80
2022/11/23 09:08:27;;;;;;;13.47;2.57;;;;;;;-145.18;100.00;46695.56;4995000;28;20032;-80
2022/11/23 09:10:53;;;;;;;20.47;3.37;;;;;;;-145.18;100.00;46693.59;5012107;28;20483;-80
2022/11/23 09:13:18;;;;;;;22.27;5.13;;;;;;;-145.18;100.00;46691.66;5011645;28;20267;-80
2022/11/23 09:15:44;;;;;;;20.70;4.00;;;;;;;-145.18;100.00;46687.75;5012200;28;20042;-80
2022/11/23 09:18:10;;;;;;;15.13;3.50;;;;;;;-145.18;100.00;46685.78;5012193;28;20085;-80
2022/11/23 09:20:35;;;;;;;15.67;3.23;;;;;;;-145.18;100.00;46679.94;5011866;28;20041;-80
2022/11/23 09:23:01;;;;;;;17.27;4.00;;;;;;;-145.18;100.00;46679.94;5012149;28;20289;-79
2022/11/23 09:25:26;;;;;;;23.50;3.33;;;;;;;-145.18;100.00;46679.94;5012205;28;20523;-80
2022/11/23 09:27:58;;;;;;;16.30;2.60;;;;;;;-145.18;100.00;46672.13;5012304;28;20385;-80
2022/11/23 09:30:24;;;;;;;18.00;3.47;;;;;;;-145.18;100.00;46672.13;5012168;28;20396;-80
2022/11/23 09:32:50;;;;;;;11.77;3.10;;;;;;;-145.18;100.00;46670.16;5011993;28;20449;-80
2022/11/23 09:35:15;;;;;;;17.87;3.87;;;;;;;-145.18;100.00;46664.31;5004558;28;20268;-80
2022/11/23 09:37:41;;;;;;;20.60;3.80;;;;;;;-145.18;100.00;46644.78;4992715;28;20041;-80
2022/11/23 09:40:08;;;;;;;16.30;2.70;;;;;;;-145.18;100.00;46636.94;4980036;28;20048;-80
2022/11/23 09:42:42;;;;;;;22.73;3.43;;;;;;;-145.18;100.00;46623.28;5012038;28;20088;-81
2022/11/23 09:45:25;;;;;;;20.23;3.60;;;;;;;-145.18;100.00;46621.31;5011455;28;20262;-81
2022/11/23 09:48:13;;;;;;;18.37;3.30;;;;;;;-145.18;100.00;46619.38;5011876;28;20601;-81
2022/11/23 09:50:47;;;;;;;18.90;2.70;;;;;;;-145.18;100.00;46611.56;5002196;28;20366;-81
2022/11/23 09:53:20;;;;;;;19.67;3.07;;;;;;;-145.18;100.00;46601.78;4991972;28;20827;-81
2022/11/23 09:55:52;;;;;;;12.03;2.23;;;;;;;-145.18;100.00;46597.88;4992147;28;20350;-81
2022/11/23 09:58:21;;;;;;;17.97;2.93;;;;;;;-145.18;100.00;46593.97;4991805;28;21112;-81
2022/11/23 10:00:59;;;;;;;11.80;2.57;;;;;;;-145.18;100.00;46593.97;5002254;28;20321;-81
2022/11/23 10:03:24;;;;;;;23.27;3.00;;;;;;;-145.18;100.00;46590.06;5011208;28;20349;-81
2022/11/23 10:06:00;;;;;;;17.43;3.00;;;;;;;-145.18;100.00;46593.97;5011401;28;20284;-81
2022/11/23 10:09:13;;;;;;;14.98;3.70;;;;;;;-145.18;100.00;46593.97;5011492;28;20478;-81
2022/11/23 10:11:58;;;;;;;17.47;2.90;;;;;;;-145.18;100.00;46601.78;4991068;28;20185;-81
2022/11/23 10:14:24;;;;;;;11.97;3.27;;;;;;;-145.18;100.00;46599.84;4991649;28;20628;-81
2022/11/23 10:17:05;;;;;;;19.10;2.43;;;;;;;-145.18;100.00;46603.75;4991805;28;20363;-81
2022/11/23 10:19:43;;;;;;;19.27;3.03;;;;;;;-145.18;100.00;46613.50;4991741;28;20045;-81
2022/11/23 10:22:18;;;;;;;14.63;2.77;;;;;;;-145.18;100.00;46617.41;4991644;28;20294;-80
2022/11/23 10:24:50;;;;;;;22.25;2.97;;;;;;;-145.18;100.00;46615.47;4990339;28;20330;-80
2022/11/23 10:27:22;;;;;;;16.00;2.40;;;;;;;-145.18;100.00;46625.22;4991626;28;20101;-80
2022/11/23 10:29:49;;;;;;;13.87;3.17;;;;;;;-145.18;100.00;46623.28;4974029;28;20334;-80
2022/11/23 10:32:40;;;;;;;15.73;2.83;;;;;;;-145.18;100.00;46623.28;4991247;28;20264;-80
2022/11/23 10:35:10;;;;;;;19.43;3.03;;;;;;;-145.18;100.00;46627.19;4991428;28;20271;-80
2022/11/23 10:37:38;;;;;;;14.97;2.83;;;;;;;-145.18;100.00;46621.31;4991950;28;20268;-80
2022/11/23 10:40:10;;;;;;;14.90;2.63;;;;;;;-145.18;100.00;46623.28;4991224;28;20728;-80
2022/11/23 10:42:42;;;;;;;11.27;2.50;;;;;;;-145.18;100.00;46629.13;4991757;28;20692;-80
2022/11/23 10:45:25;;;;;;;11.97;2.63;;;;;;;-145.18;100.00;46623.28;4991171;28;20275;-80
2022/11/23 10:47:59;;;;;;;14.00;2.63;;;;;;;-145.18;100.00;46629.13;4991745;28;20275;-80
2022/11/23 10:50:33;;;;;;;13.20;2.37;;;;;;;-145.18;100.00;46619.38;4974912;28;20292;-80
2022/11/23 10:53:04;;;;;;;17.57;2.93;;;;;;;-145.18;100.00;46617.41;4991228;28;21247;-80
2022/11/23 10:55:32;;;;;;;14.37;3.37;;;;;;;-145.18;100.00;46615.47;4991132;28;20350;-80
2022/11/23 10:57:59;;;;;;;15.03;3.00;;;;;;;-145.18;100.00;46611.56;4991341;28;20276;-80
2022/11/23 11:00:27;;;;;;;17.87;3.33;;;;;;;-145.18;100.00;46615.47;4991404;28;20272;-80